createdAt,value
2023-02-27T00:00:55.907Z,70.61
2023-02-27T00:03:22.402Z,70.43
2023-02-27T00:06:13.103Z,70.60
2023-02-27T00:08:39.522Z,70.37
2023-02-27T00:11:05.920Z,70.42
2023-02-27T00:13:35.504Z,70.61
2023-02-27T00:16:02.458Z,70.90
2023-02-27T00:18:28.872Z,71.26
2023-02-27T00:20:55.264Z,71.32
2023-02-27T00:23:28.556Z,71.70
2023-02-27T00:25:55.537Z,71.43
2023-02-27T00:28:22.816Z,71.32
2023-02-27T00:30:55.095Z,71.21
2023-02-27T00:33:22.119Z,71.37
2023-02-27T00:35:59.227Z,71.39
2023-02-27T00:38:26.257Z,71.32
2023-02-27T00:40:52.731Z,71.81
2023-02-27T00:43:19.171Z,71.30
2023-02-27T00:45:45.644Z,71.07
2023-02-27T00:48:18.735Z,70.92
2023-02-27T00:50:45.181Z,70.89
2023-02-27T00:53:11.591Z,71.04
2023-02-27T00:55:37.955Z,71.41
2023-02-27T01:00:36.001Z,71.85
2023-02-27T01:03:04.193Z,72.17
2023-02-27T01:05:30.775Z,72.75
2023-02-27T01:07:57.182Z,72.95
2023-02-27T01:10:24.154Z,73.19
2023-02-27T01:12:50.714Z,73.44
2023-02-27T01:15:17.682Z,73.41
2023-02-27T01:17:44.113Z,73.57
2023-02-27T01:20:12.739Z,73.80
2023-02-27T01:22:39.411Z,73.82
2023-02-27T01:25:08.598Z,74.10
2023-02-27T01:27:35.070Z,73.82
2023-02-27T01:30:01.616Z,74.10
2023-02-27T01:32:28.132Z,74.20
2023-02-27T01:34:54.632Z,74.17
2023-02-27T01:37:21.042Z,74.16
2023-02-27T01:39:50.529Z,74.44
2023-02-27T01:42:25.905Z,74.34
2023-02-27T01:45:09.144Z,74.38
2023-02-27T01:47:37.094Z,74.53
2023-02-27T01:50:04.180Z,74.68
2023-02-27T01:52:32.639Z,74.87
2023-02-27T01:54:59.184Z,74.67
2023-02-27T01:57:26.609Z,74.92
2023-02-27T01:59:55.767Z,74.91
2023-02-27T02:02:29.612Z,74.97
2023-02-27T02:04:56.964Z,75.39
2023-02-27T02:07:25.279Z,75.20
2023-02-27T02:09:56.262Z,74.75
2023-02-27T02:12:26.887Z,75.05
2023-02-27T02:14:53.367Z,75.53
2023-02-27T02:17:47.996Z,75.25
2023-02-27T02:20:54.104Z,75.39
2023-02-27T02:23:46.646Z,76.00
2023-02-27T02:26:33.515Z,75.64
2023-02-27T02:29:43.541Z,75.51
2023-02-27T02:32:54.925Z,75.51
2023-02-27T02:36:03.110Z,75.49
2023-02-27T02:38:51.467Z,75.72
2023-02-27T02:41:38.333Z,75.83
2023-02-27T02:44:35.442Z,76.01
2023-02-27T02:47:16.206Z,76.08
2023-02-27T02:49:53.525Z,76.36
2023-02-27T02:52:30.126Z,76.39
2023-02-27T02:55:29.160Z,76.60
2023-02-27T02:58:03.517Z,76.61
2023-02-27T03:00:35.427Z,76.64
2023-02-27T03:03:18.908Z,76.57
2023-02-27T03:05:53.143Z,76.94
2023-02-27T03:08:31.226Z,77.07
2023-02-27T03:11:03.799Z,77.18
2023-02-27T03:13:39.157Z,77.67
2023-02-27T03:16:26.565Z,77.54
2023-02-27T03:19:02.288Z,77.25
2023-02-27T03:21:45.525Z,77.64
2023-02-27T03:24:23.749Z,77.75
2023-02-27T03:26:53.820Z,77.62
2023-02-27T03:29:27.492Z,77.55
2023-02-27T03:32:07.903Z,78.00
2023-02-27T03:34:38.525Z,77.63
2023-02-27T03:37:18.349Z,78.08
2023-02-27T03:39:48.783Z,78.47
2023-02-27T03:42:20.766Z,78.90
2023-02-27T03:44:52.357Z,78.57
2023-02-27T03:47:19.221Z,78.25
2023-02-27T03:49:45.706Z,78.62
2023-02-27T03:52:12.862Z,78.92
2023-02-27T03:54:49.379Z,79.06
2023-02-27T03:57:15.828Z,78.90
2023-02-27T03:59:43.496Z,79.17
2023-02-27T04:02:10.275Z,79.06
2023-02-27T04:04:36.791Z,79.22
2023-02-27T04:07:24.240Z,79.11
2023-02-27T04:10:06.111Z,78.31
2023-02-27T04:13:01.163Z,78.63
2023-02-27T04:15:45.590Z,79.06
2023-02-27T04:18:24.110Z,77.99
2023-02-27T04:21:11.136Z,77.96
2023-02-27T04:23:47.484Z,78.29
2023-02-27T04:26:17.096Z,78.84
2023-02-27T04:28:53.484Z,78.92
2023-02-27T04:31:40.142Z,79.06
2023-02-27T04:34:23.559Z,79.28
2023-02-27T04:37:10.164Z,79.18
2023-02-27T04:39:51.542Z,79.06
2023-02-27T04:42:24.490Z,79.38
2023-02-27T04:44:55.305Z,79.65
2023-02-27T04:47:25.036Z,79.69
2023-02-27T04:49:56.393Z,80.33
2023-02-27T04:52:37.925Z,80.74
2023-02-27T04:55:20.198Z,80.49
2023-02-27T04:58:04.402Z,79.71
2023-02-27T05:00:33.158Z,79.38
2023-02-27T05:03:22.401Z,79.00
2023-02-27T05:05:52.814Z,78.64
2023-02-27T05:08:30.454Z,77.85
2023-02-27T05:11:06.021Z,77.24
2023-02-27T05:13:38.359Z,77.36
2023-02-27T05:16:33.087Z,77.39
2023-02-27T05:19:01.529Z,78.37
2023-02-27T05:21:41.713Z,78.75
2023-02-27T05:24:37.084Z,79.55
2023-02-27T05:27:09.783Z,79.44
2023-02-27T05:29:52.492Z,79.57
2023-02-27T05:32:31.412Z,80.42
2023-02-27T05:35:04.901Z,80.36
2023-02-27T05:37:35.961Z,80.85
2023-02-27T05:40:08.312Z,81.19
2023-02-27T05:42:41.832Z,81.45
2023-02-27T05:45:13.458Z,81.87
2023-02-27T05:47:46.560Z,81.86
2023-02-27T05:50:18.092Z,81.74
2023-02-27T05:52:46.066Z,82.05
2023-02-27T05:55:25.229Z,82.42
2023-02-27T05:57:57.810Z,82.29
2023-02-27T06:00:38.610Z,82.96
2023-02-27T06:03:05.557Z,82.18
2023-02-27T06:05:32.705Z,82.39
2023-02-27T06:07:59.178Z,82.78
2023-02-27T06:10:26.207Z,82.86
2023-02-27T06:12:52.728Z,82.92
2023-02-27T06:15:24.858Z,82.92
2023-02-27T06:17:51.467Z,83.27
2023-02-27T06:20:21.417Z,83.04
2023-02-27T06:22:48.317Z,83.17
2023-02-27T06:25:18.649Z,83.09
2023-02-27T06:27:48.176Z,82.94
2023-02-27T06:30:17.914Z,82.72
2023-02-27T06:32:44.282Z,83.32
2023-02-27T06:35:11.152Z,82.97
2023-02-27T06:37:37.783Z,83.07
2023-02-27T06:40:14.383Z,83.60
2023-02-27T06:42:42.831Z,83.22
2023-02-27T06:45:13.751Z,83.50
2023-02-27T06:47:41.473Z,83.78
2023-02-27T06:50:11.262Z,82.59
2023-02-27T06:52:39.097Z,80.95
2023-02-27T06:55:08.032Z,78.88
2023-02-27T06:57:34.941Z,77.15
2023-02-27T07:00:02.457Z,76.08
2023-02-27T07:02:29.067Z,75.94
2023-02-27T07:04:55.636Z,76.04
2023-02-27T07:07:34.280Z,75.16
2023-02-27T07:10:08.925Z,74.99
2023-02-27T07:12:35.405Z,74.15
2023-02-27T07:15:02.028Z,73.44
2023-02-27T07:17:31.532Z,72.06
2023-02-27T07:20:00.537Z,71.58
2023-02-27T07:22:38.594Z,71.08
2023-02-27T07:25:05.776Z,71.28
2023-02-27T07:27:45.400Z,71.79
2023-02-27T07:32:35.984Z,68.85
2023-02-27T07:35:03.868Z,68.29
2023-02-27T07:37:30.515Z,67.51
2023-02-27T07:39:57.098Z,65.54
2023-02-27T07:42:23.519Z,65.77
2023-02-27T07:44:49.931Z,65.17
2023-02-27T07:47:17.837Z,65.36
2023-02-27T07:49:44.401Z,66.72
2023-02-27T07:52:12.651Z,69.24
2023-02-27T07:54:39.664Z,70.20
2023-02-27T07:57:06.633Z,66.68
2023-02-27T07:59:39.581Z,66.07
2023-02-27T08:02:06.490Z,66.05
2023-02-27T08:04:33.562Z,66.75
2023-02-27T08:07:00.581Z,63.46
2023-02-27T08:09:27.106Z,62.38
2023-02-27T08:11:53.606Z,62.59
2023-02-27T08:14:20.388Z,65.42
2023-02-27T08:16:47.013Z,63.38
2023-02-27T08:19:14.524Z,61.90
2023-02-27T08:21:41.285Z,61.19
2023-02-27T08:24:07.696Z,58.78
2023-02-27T08:26:34.152Z,62.59
2023-02-27T08:29:01.841Z,64.76
2023-02-27T08:31:28.366Z,63.65
2023-02-27T08:34:07.786Z,58.29
2023-02-27T08:36:36.196Z,58.65
2023-02-27T08:39:03.430Z,57.57
2023-02-27T08:41:29.860Z,58.43
2023-02-27T08:43:56.304Z,54.22
2023-02-27T08:46:22.728Z,51.65
2023-02-27T08:48:49.095Z,51.21
2023-02-27T08:51:15.553Z,49.73
2023-02-27T08:53:41.970Z,49.60
2023-02-27T08:56:08.841Z,50.86
2023-02-27T08:58:35.902Z,48.22
2023-02-27T09:01:03.779Z,46.20
2023-02-27T09:03:31.390Z,44.14
2023-02-27T09:05:58.123Z,45.30
2023-02-27T09:08:24.672Z,47.04
2023-02-27T09:10:52.390Z,48.92
2023-02-27T09:13:19.612Z,46.82
2023-02-27T09:15:50.205Z,44.33
2023-02-27T09:18:16.679Z,43.97
2023-02-27T09:20:43.039Z,43.50
2023-02-27T09:23:09.560Z,44.27
2023-02-27T09:25:36.310Z,43.41
2023-02-27T09:28:03.360Z,43.69
2023-02-27T09:30:29.761Z,41.89
2023-02-27T09:32:56.200Z,42.37
2023-02-27T09:35:22.720Z,41.46
2023-02-27T09:37:52.021Z,42.35
2023-02-27T09:40:27.714Z,42.30
2023-02-27T09:42:58.437Z,41.45
2023-02-27T09:45:27.599Z,39.11
2023-02-27T09:48:17.802Z,39.65
2023-02-27T09:50:47.528Z,38.82
2023-02-27T09:53:21.316Z,39.36
2023-02-27T09:55:49.108Z,38.99
2023-02-27T09:58:33.790Z,38.27
2023-02-27T10:01:16.420Z,38.15
2023-02-27T10:04:08.892Z,37.89
2023-02-27T10:06:48.514Z,37.47
2023-02-27T10:09:14.919Z,35.51
2023-02-27T10:12:07.577Z,37.61
2023-02-27T10:15:06.318Z,38.05
2023-02-27T10:17:40.175Z,37.12
2023-02-27T10:20:23.103Z,38.23
2023-02-27T10:22:53.220Z,38.45
2023-02-27T10:25:31.205Z,38.45
2023-02-27T10:28:09.293Z,37.94
2023-02-27T10:30:36.269Z,39.05
2023-02-27T10:33:06.778Z,37.58
2023-02-27T10:35:42.915Z,38.55
2023-02-27T10:38:21.572Z,38.04
2023-02-27T10:40:50.661Z,36.70
2023-02-27T10:43:19.047Z,37.82
2023-02-27T10:45:45.523Z,39.60
2023-02-27T10:48:13.021Z,37.91
2023-02-27T10:50:45.401Z,37.33
2023-02-27T10:53:23.649Z,39.76
2023-02-27T10:56:05.956Z,39.27
2023-02-27T10:58:35.799Z,39.39
2023-02-27T11:01:09.025Z,39.23
2023-02-27T11:03:41.615Z,38.63
2023-02-27T11:06:27.706Z,39.48
2023-02-27T11:09:33.250Z,38.79
2023-02-27T11:12:21.063Z,36.91
2023-02-27T11:14:52.999Z,37.63
2023-02-27T11:17:32.658Z,36.68
2023-02-27T11:20:01.353Z,36.95
2023-02-27T11:22:30.213Z,37.39
2023-02-27T11:25:18.484Z,37.45
2023-02-27T11:27:46.430Z,37.14
2023-02-27T11:30:29.592Z,36.34
2023-02-27T11:32:58.809Z,34.71
2023-02-27T11:35:37.397Z,33.81
2023-02-27T11:38:16.897Z,34.16
2023-02-27T11:40:51.092Z,34.41
2023-02-27T11:43:21.383Z,35.35
2023-02-27T11:46:46.302Z,35.86
2023-02-27T11:49:37.988Z,36.91
2023-02-27T11:52:23.844Z,39.19
2023-02-27T11:54:58.551Z,39.64
2023-02-27T11:57:33.902Z,39.50
2023-02-27T12:00:15.952Z,37.05
2023-02-27T12:03:06.252Z,39.09
2023-02-27T12:05:43.726Z,39.05
2023-02-27T12:08:21.385Z,39.40
2023-02-27T12:11:29.155Z,40.03
2023-02-27T12:14:04.097Z,39.79
2023-02-27T12:16:37.638Z,39.50
2023-02-27T12:19:21.402Z,39.62
2023-02-27T12:21:53.745Z,38.81
2023-02-27T12:24:36.322Z,37.93
2023-02-27T12:27:18.231Z,37.45
2023-02-27T12:30:00.357Z,35.59
2023-02-27T12:32:42.908Z,34.66
2023-02-27T12:35:28.133Z,34.58
2023-02-27T12:37:55.959Z,35.06
2023-02-27T12:40:31.251Z,35.55
2023-02-27T12:43:07.188Z,33.99
2023-02-27T12:45:55.155Z,34.03
2023-02-27T12:48:51.124Z,35.28
2023-02-27T12:51:42.710Z,34.13
2023-02-27T12:54:37.097Z,34.54
2023-02-27T12:57:06.830Z,34.25
2023-02-27T13:00:00.018Z,35.35
2023-02-27T13:02:36.747Z,34.89
2023-02-27T13:05:34.161Z,35.61
2023-02-27T13:08:07.347Z,34.22
2023-02-27T13:10:42.298Z,34.78
2023-02-27T13:13:19.962Z,37.57
2023-02-27T13:15:55.083Z,35.96
2023-02-27T13:18:31.872Z,37.83
2023-02-27T13:21:11.169Z,39.18
2023-02-27T13:23:52.360Z,40.45
2023-02-27T13:27:09.982Z,39.29
2023-02-27T13:29:40.896Z,37.86
2023-02-27T13:32:52.098Z,36.24
2023-02-27T13:35:44.822Z,34.41
2023-02-27T13:38:40.616Z,36.59
2023-02-27T13:41:27.721Z,37.22
2023-02-27T13:43:56.108Z,34.98
2023-02-27T13:46:31.097Z,35.82
2023-02-27T13:49:20.027Z,36.86
2023-02-27T13:51:56.332Z,35.66
2023-02-27T13:54:26.626Z,34.68
2023-02-27T13:56:59.262Z,34.92
2023-02-27T13:59:32.222Z,34.11
2023-02-27T14:02:17.142Z,34.09
2023-02-27T14:05:01.615Z,35.05
2023-02-27T14:07:49.193Z,34.74
2023-02-27T14:10:27.054Z,35.80
2023-02-27T14:12:53.597Z,35.00
2023-02-27T14:15:22.807Z,34.79
2023-02-27T14:18:11.454Z,35.44
2023-02-27T14:20:40.930Z,35.48
2023-02-27T14:23:27.377Z,33.99
2023-02-27T14:25:54.913Z,34.21
2023-02-27T14:28:30.587Z,35.89
2023-02-27T14:31:05.949Z,37.01
2023-02-27T14:33:50.581Z,36.65
2023-02-27T14:36:30.695Z,35.98
2023-02-27T14:38:59.475Z,35.46
2023-02-27T14:41:49.986Z,38.61
2023-02-27T14:44:24.670Z,36.92
2023-02-27T14:46:54.035Z,37.81
2023-02-27T14:49:28.663Z,37.55
2023-02-27T14:51:55.379Z,37.36
2023-02-27T14:54:24.408Z,37.86
2023-02-27T14:56:57.717Z,38.00
2023-02-27T14:59:30.769Z,38.71
2023-02-27T15:02:01.961Z,38.43
2023-02-27T15:04:30.965Z,37.84
2023-02-27T15:07:03.680Z,37.39
2023-02-27T15:09:45.767Z,37.67
2023-02-27T15:12:26.338Z,38.49
2023-02-27T15:14:57.456Z,37.45
2023-02-27T15:17:37.092Z,37.72
2023-02-27T15:20:24.566Z,38.01
2023-02-27T15:22:51.052Z,37.85
2023-02-27T15:25:35.406Z,38.05
2023-02-27T15:28:04.781Z,38.54
2023-02-27T15:30:31.955Z,37.84
2023-02-27T15:33:00.124Z,37.35
2023-02-27T15:35:37.409Z,38.29
2023-02-27T15:38:04.439Z,38.72
2023-02-27T15:40:33.432Z,39.06
2023-02-27T15:43:00.983Z,38.64
2023-02-27T15:45:34.299Z,38.42
2023-02-27T15:48:01.475Z,38.51
2023-02-27T15:50:33.590Z,39.15
2023-02-27T15:53:11.373Z,39.50
2023-02-27T15:55:43.032Z,39.29
2023-02-27T15:58:27.610Z,39.67
2023-02-27T16:01:22.063Z,39.88
2023-02-27T16:03:52.018Z,40.56
2023-02-27T16:06:23.352Z,40.84
2023-02-27T16:09:00.785Z,41.48
2023-02-27T16:11:31.401Z,41.59
2023-02-27T16:13:58.460Z,41.88
2023-02-27T16:16:35.382Z,42.02
2023-02-27T16:19:26.822Z,41.83
2023-02-27T16:22:14.105Z,42.34
2023-02-27T16:24:40.828Z,42.88
2023-02-27T16:27:17.018Z,43.35
2023-02-27T16:29:45.284Z,43.73
2023-02-27T16:32:26.181Z,43.44
2023-02-27T16:35:01.304Z,43.80
2023-02-27T16:37:36.156Z,44.43
2023-02-27T16:40:12.958Z,45.38
2023-02-27T16:42:41.090Z,45.54
2023-02-27T16:45:10.988Z,46.23
2023-02-27T16:47:37.566Z,46.47
2023-02-27T16:50:04.151Z,46.79
2023-02-27T16:52:30.679Z,47.00
2023-02-27T16:54:57.145Z,47.77
2023-02-27T16:57:27.641Z,48.64
2023-02-27T16:59:54.163Z,49.05
2023-02-27T17:02:20.584Z,49.51
2023-02-27T17:04:48.307Z,49.92
2023-02-27T17:07:16.772Z,50.03
2023-02-27T17:09:44.749Z,50.12
2023-02-27T17:12:11.351Z,50.46
2023-02-27T17:14:38.091Z,50.58
2023-02-27T17:17:11.328Z,50.97
2023-02-27T17:19:38.513Z,51.40
2023-02-27T17:22:05.219Z,51.72
2023-02-27T17:24:37.664Z,51.37
2023-02-27T17:27:11.789Z,51.56
2023-02-27T17:32:54.161Z,52.95
2023-02-27T17:35:23.626Z,52.92
2023-02-27T17:37:50.268Z,53.29
2023-02-27T17:43:06.953Z,53.86
2023-02-27T17:45:55.114Z,53.90
2023-02-27T17:48:25.512Z,53.93
2023-02-27T17:51:12.449Z,54.46
2023-02-27T17:53:40.020Z,54.45
2023-02-27T17:56:11.292Z,54.46
2023-02-27T17:58:45.211Z,54.72
2023-02-27T18:01:53.958Z,55.09
2023-02-27T18:04:38.309Z,54.89
2023-02-27T18:07:10.590Z,55.36
2023-02-27T18:09:45.671Z,55.14
2023-02-27T18:12:28.033Z,55.33
2023-02-27T18:15:22.672Z,55.09
2023-02-27T18:18:48.168Z,55.08
2023-02-27T18:21:38.673Z,55.11
2023-02-27T18:24:29.830Z,55.06
2023-02-27T18:27:12.974Z,55.02
2023-02-27T18:30:02.843Z,54.92
2023-02-27T18:32:33.661Z,55.41
2023-02-27T18:35:00.634Z,56.00
2023-02-27T18:37:36.353Z,55.84
2023-02-27T18:40:14.814Z,56.20
2023-02-27T18:42:55.457Z,56.61
2023-02-27T18:45:40.941Z,57.29
2023-02-27T18:48:16.083Z,57.78
2023-02-27T18:50:46.640Z,58.25
2023-02-27T18:53:13.473Z,58.76
2023-02-27T18:57:45.740Z,59.22
2023-02-27T19:00:28.739Z,59.05
2023-02-27T19:02:55.325Z,58.92
2023-02-27T19:05:25.457Z,58.53
2023-02-27T19:07:52.380Z,58.45
2023-02-27T19:10:46.763Z,58.19
2023-02-27T19:13:14.099Z,58.13
2023-02-27T19:15:46.624Z,58.14
2023-02-27T19:18:13.425Z,57.84
2023-02-27T19:20:40.170Z,57.66
2023-02-27T19:23:08.674Z,57.62
2023-02-27T19:25:39.004Z,57.38
2023-02-27T19:28:22.386Z,57.49
2023-02-27T19:31:15.020Z,57.50
2023-02-27T19:33:47.334Z,57.97
2023-02-27T19:36:17.707Z,58.35
2023-02-27T19:38:44.212Z,59.22
2023-02-27T19:41:22.840Z,59.33
2023-02-27T19:47:33.204Z,60.44
2023-02-27T19:50:17.982Z,60.42
2023-02-27T19:52:53.472Z,60.83
2023-02-27T19:55:27.916Z,61.17
2023-02-27T19:58:25.075Z,61.50
2023-02-27T20:01:00.098Z,61.21
2023-02-27T20:03:50.300Z,61.18
2023-02-27T20:06:26.107Z,61.52
2023-02-27T20:08:57.307Z,61.41
2023-02-27T20:11:33.133Z,61.68
2023-02-27T20:14:05.542Z,61.81
2023-02-27T20:19:53.396Z,62.57
2023-02-27T20:22:24.088Z,62.48
2023-02-27T20:25:25.006Z,62.80
2023-02-27T20:27:51.638Z,63.25
2023-02-27T20:30:30.115Z,63.30
2023-02-27T20:33:09.038Z,63.07
2023-02-27T20:35:46.584Z,63.16
2023-02-27T20:38:29.110Z,63.36
2023-02-27T20:41:24.246Z,63.83
2023-02-27T20:44:13.379Z,63.92
2023-02-27T20:46:58.904Z,63.82
2023-02-27T20:52:42.221Z,63.98
2023-02-27T20:55:26.639Z,64.21
2023-02-27T20:58:00.951Z,64.44
2023-02-27T21:00:38.408Z,64.72
2023-02-27T21:03:20.610Z,64.61
2023-02-27T21:06:04.845Z,64.39
2023-02-27T21:08:50.872Z,64.16
2023-02-27T21:11:24.368Z,64.06
2023-02-27T21:13:50.957Z,64.31
2023-02-27T21:16:19.048Z,64.09
2023-02-27T21:18:46.475Z,63.95
2023-02-27T21:21:18.716Z,64.34
2023-02-27T21:23:45.624Z,64.45
2023-02-27T21:26:27.245Z,64.38
2023-02-27T21:29:10.240Z,64.51
2023-02-27T21:31:38.144Z,64.61
2023-02-27T21:34:08.073Z,64.67
2023-02-27T21:36:43.073Z,64.86
2023-02-27T21:39:16.812Z,65.26
2023-02-27T21:41:44.669Z,65.15
2023-02-27T21:44:17.757Z,65.26
2023-02-27T21:46:45.470Z,64.81
2023-02-27T21:49:17.960Z,65.19
2023-02-27T21:51:45.204Z,65.29
2023-02-27T21:54:13.330Z,65.33
2023-02-27T21:56:41.188Z,64.86
2023-02-27T21:59:08.013Z,64.79
2023-02-27T22:01:35.168Z,65.05
2023-02-27T22:04:02.162Z,65.33
2023-02-27T22:06:33.019Z,65.78
2023-02-27T22:09:03.138Z,65.89
2023-02-27T22:11:30.934Z,66.19
2023-02-27T22:14:01.242Z,66.36
2023-02-27T22:16:28.217Z,66.27
2023-02-27T22:18:55.175Z,66.27
2023-02-27T22:21:24.151Z,66.49
2023-02-27T22:23:51.531Z,66.90
2023-02-27T22:26:22.925Z,67.08
2023-02-27T22:28:55.031Z,67.31
2023-02-27T22:31:40.391Z,67.50
2023-02-27T22:34:12.089Z,67.39
2023-02-27T22:36:41.207Z,67.32
2023-02-27T22:39:08.635Z,67.65
2023-02-27T22:41:40.303Z,67.75
2023-02-27T22:44:09.660Z,67.67
2023-02-27T22:46:39.610Z,67.58
2023-02-27T22:49:23.709Z,67.63
2023-02-27T22:51:56.143Z,67.06
2023-02-27T22:54:23.259Z,67.60
2023-02-27T22:56:58.153Z,67.66
2023-02-27T22:59:26.220Z,67.78
2023-02-27T23:01:54.350Z,67.91
2023-02-27T23:04:22.696Z,68.11
2023-02-27T23:06:53.937Z,68.42
2023-02-27T23:09:27.372Z,68.39
2023-02-27T23:11:55.688Z,68.09
2023-02-27T23:14:23.365Z,68.47
2023-02-27T23:16:53.649Z,68.48
2023-02-27T23:19:25.764Z,68.61
2023-02-27T23:21:58.570Z,68.70
2023-02-27T23:24:25.556Z,68.79
2023-02-27T23:26:56.293Z,68.79
2023-02-27T23:29:23.433Z,68.96
2023-02-27T23:31:50.793Z,68.98
2023-02-27T23:34:17.911Z,69.10
2023-02-27T23:36:54.148Z,69.26
2023-02-27T23:39:21.055Z,69.29
2023-02-27T23:41:49.441Z,69.22
2023-02-27T23:44:16.416Z,69.29
2023-02-27T23:46:43.479Z,69.09
2023-02-27T23:49:11.278Z,69.15
2023-02-27T23:51:38.190Z,69.11
2023-02-27T23:54:13.062Z,69.07
2023-02-27T23:56:40.141Z,69.35
2023-02-27T23:59:09.889Z,69.46
